PSBER TNCB-MUHA
Flight info
| Callsign | PSBER |
|---|---|
| Flight time | N/A |
| Altitude | 40000 |
| Route | VESKA1R VESKA UA315 PAP UA890 UCU J3 APRIK DUTAN |
| Aircraft | CL60/M-SBDE1E2E3FGHIJ1J4J5J7M3RWXYZ/LB1V1D1 |
Departure
| Time | N/A |
|---|---|
| Airport | Flamingo International Airport (TNCB) |
Arrival
| Time | 2026-05-03 23:41 |
|---|---|
| Airport | José Martí International Airport (MUHA) |
| Time | Latitude | Longitude | Altitude | Speed | Heading |
|---|---|---|---|---|---|
| 2026-05-03 23:30 | 22.58601 | -82.01508 | 13561 ft | 334 kts | 292° |
| 2026-05-03 23:30 | 22.59300 | -82.03226 | 13342 ft | 333 kts | 292° |
| 2026-05-03 23:30 | 22.60196 | -82.05432 | 12815 ft | 334 kts | 292° |
| 2026-05-03 23:30 | 22.61108 | -82.07674 | 12377 ft | 330 kts | 292° |
| 2026-05-03 23:31 | 22.62052 | -82.09998 | 11914 ft | 329 kts | 292° |
| 2026-05-03 23:31 | 22.62990 | -82.12305 | 11474 ft | 327 kts | 292° |
| 2026-05-03 23:31 | 22.63923 | -82.14605 | 11041 ft | 325 kts | 292° |
| 2026-05-03 23:31 | 22.64844 | -82.16875 | 10610 ft | 322 kts | 292° |
| 2026-05-03 23:32 | 22.65767 | -82.19151 | 10170 ft | 321 kts | 292° |
| 2026-05-03 23:32 | 22.66678 | -82.21399 | 9741 ft | 320 kts | 292° |
| 2026-05-03 23:32 | 22.67575 | -82.23576 | 9320 ft | 319 kts | 293° |
| 2026-05-03 23:32 | 22.68499 | -82.25734 | 8897 ft | 317 kts | 293° |
| 2026-05-03 23:33 | 22.69428 | -82.27904 | 8472 ft | 315 kts | 294° |
| 2026-05-03 23:33 | 22.70347 | -82.30053 | 8058 ft | 314 kts | 293° |
| 2026-05-03 23:33 | 22.71261 | -82.32190 | 7581 ft | 313 kts | 292° |
| 2026-05-03 23:33 | 22.72170 | -82.34318 | 7187 ft | 310 kts | 293° |
| 2026-05-03 23:34 | 22.73073 | -82.36431 | 6771 ft | 310 kts | 292° |
| 2026-05-03 23:34 | 22.73979 | -82.38554 | 6361 ft | 309 kts | 292° |
| 2026-05-03 23:34 | 22.74889 | -82.40688 | 5944 ft | 308 kts | 292° |
| 2026-05-03 23:34 | 22.75778 | -82.42772 | 5532 ft | 302 kts | 293° |
| 2026-05-03 23:35 | 22.76641 | -82.44794 | 5140 ft | 292 kts | 293° |
| 2026-05-03 23:35 | 22.77486 | -82.46776 | 4754 ft | 284 kts | 292° |
| 2026-05-03 23:35 | 22.78305 | -82.48697 | 4384 ft | 277 kts | 292° |
| 2026-05-03 23:35 | 22.79114 | -82.50561 | 4019 ft | 270 kts | 296° |
| 2026-05-03 23:36 | 22.80298 | -82.52132 | 3663 ft | 267 kts | 319° |
| 2026-05-03 23:36 | 22.81791 | -82.53310 | 3308 ft | 262 kts | 323° |
| 2026-05-03 23:36 | 22.83265 | -82.54446 | 2957 ft | 258 kts | 322° |
| 2026-05-03 23:36 | 22.84755 | -82.55476 | 2625 ft | 254 kts | 334° |
| 2026-05-03 23:37 | 22.86417 | -82.56097 | 2285 ft | 252 kts | 350° |
| 2026-05-03 23:37 | 22.88144 | -82.55942 | 1992 ft | 247 kts | 20° |
| 2026-05-03 23:37 | 22.89446 | -82.54839 | 1946 ft | 232 kts | 52° |
| 2026-05-03 23:37 | 22.90402 | -82.53513 | 1979 ft | 212 kts | 49° |
| 2026-05-03 23:38 | 22.91276 | -82.52340 | 1990 ft | 188 kts | 51° |
| 2026-05-03 23:38 | 22.92018 | -82.51260 | 1984 ft | 172 kts | 52° |
| 2026-05-03 23:38 | 22.92719 | -82.50224 | 1871 ft | 161 kts | 52° |
| 2026-05-03 23:38 | 22.93340 | -82.49294 | 1701 ft | 145 kts | 52° |
| 2026-05-03 23:39 | 22.93921 | -82.48422 | 1524 ft | 142 kts | 52° |
| 2026-05-03 23:39 | 22.94496 | -82.47560 | 1328 ft | 140 kts | 52° |
| 2026-05-03 23:39 | 22.95067 | -82.46702 | 1152 ft | 139 kts | 52° |
| 2026-05-03 23:39 | 22.95628 | -82.45858 | 973 ft | 137 kts | 52° |
| 2026-05-03 23:40 | 22.96182 | -82.45015 | 800 ft | 136 kts | 53° |
| 2026-05-03 23:40 | 22.96736 | -82.44190 | 629 ft | 135 kts | 51° |
| 2026-05-03 23:40 | 22.97288 | -82.43365 | 456 ft | 133 kts | 51° |
| 2026-05-03 23:40 | 22.97825 | -82.42551 | 290 ft | 132 kts | 52° |
| 2026-05-03 23:41 | 22.98343 | -82.41773 | 220 ft | 113 kts | 52° |
| 2026-05-03 23:41 | 22.98657 | -82.41302 | 216 ft | 45 kts | 54° |
| 2026-05-03 23:41 | 22.98770 | -82.41129 | 214 ft | 12 kts | 56° |
| 2026-05-03 23:41 | 22.98824 | -82.41097 | 214 ft | 4 kts | 12° |
| 2026-05-03 23:42 | 22.98834 | -82.41094 | 214 ft | 0 kts | 12° |
| 2026-05-03 23:42 | 22.98878 | -82.41085 | 214 ft | 9 kts | 7° |
| 2026-05-03 23:42 | 22.98949 | -82.41074 | 214 ft | 12 kts | 10° |
| 2026-05-03 23:43 | 22.99032 | -82.41048 | 214 ft | 12 kts | 41° |
| 2026-05-03 23:43 | 22.99092 | -82.40957 | 214 ft | 17 kts | 53° |
| 2026-05-03 23:43 | 22.99160 | -82.40856 | 213 ft | 15 kts | 55° |
| 2026-05-03 23:43 | 22.99207 | -82.40784 | 213 ft | 5 kts | 52° |
| 2026-05-03 23:44 | 22.99242 | -82.40734 | 213 ft | 10 kts | 57° |
| 2026-05-03 23:44 | 22.99294 | -82.40652 | 213 ft | 15 kts | 54° |
| 2026-05-03 23:44 | 22.99363 | -82.40549 | 214 ft | 14 kts | 54° |
| 2026-05-03 23:44 | 22.99425 | -82.40456 | 214 ft | 15 kts | 53° |
| 2026-05-03 23:45 | 22.99499 | -82.40345 | 215 ft | 15 kts | 55° |
| 2026-05-03 23:45 | 22.99569 | -82.40241 | 216 ft | 16 kts | 54° |
| 2026-05-03 23:45 | 22.99628 | -82.40152 | 218 ft | 15 kts | 54° |
| 2026-05-03 23:45 | 22.99692 | -82.40057 | 219 ft | 15 kts | 54° |
| 2026-05-03 23:46 | 22.99754 | -82.39963 | 221 ft | 16 kts | 54° |
| 2026-05-03 23:46 | 22.99812 | -82.39874 | 222 ft | 14 kts | 54° |
| 2026-05-03 23:46 | 22.99880 | -82.39773 | 224 ft | 17 kts | 55° |
| 2026-05-03 23:46 | 22.99941 | -82.39681 | 226 ft | 8 kts | 55° |
| 2026-05-03 23:47 | 22.99996 | -82.39672 | 226 ft | 10 kts | 321° |
| 2026-05-03 23:47 | 23.00057 | -82.39719 | 225 ft | 11 kts | 326° |
| 2026-05-03 23:47 | 23.00103 | -82.39706 | 226 ft | 6 kts | 53° |
| 2026-05-03 23:47 | 23.00123 | -82.39678 | 226 ft | 2 kts | 56° |
| 2026-05-03 23:48 | 23.00127 | -82.39671 | 226 ft | 0 kts | 54° |